x

West Orca Bay - 8nm Nw Of Hinchinbrook Is , Ak (46060) Wave Buoy

5:50am - Wed 22nd Nov 2017 All times are AKST. -9 hours from GMT.

  • Sig Wave height 2.0ft
  • Swell Direction
  • Peak Period 10s
  • Average Period 4s
  • Wind
    11mph, 13mph gusts
  • Sea Temp 44°f
  • Air Temp 35°f
  • Sea Pressure 1002.8mb
  • West Orca Bay - 8nm Nw Of Hinchinbrook  Is , Ak
  • West Orca Bay - 8nm Nw Of Hinchinbrook  Is , Ak

More Historic Weather Station data

Upgrade to MSW Pro to gain access to the past 30 days of data for over 8000 Wavebouys and Weather Stations around the globe.

Join

Comparision Forecast

View Surf forecast
   
Wed 11/22 5:50am 2ft 10s 4s 11 13 mph 1002.8mb 44f 35f
4:50am 2ft 10s 4s 11 13 mph 1002.9mb 43f 34f
3:50am 2.5ft 4s 4s 9 13 mph 1003.8mb 44f 35f
2:50am 2ft 3s 4s 13 16 mph 1004.8mb 44f 34f
1:50am 2ft 8s 4s 11 13 mph 1005.4mb 44f 35f
12:50am 2ft 3s 4s 13 16 mph 1005.8mb 43f 35f
Tue 11/21 11:50pm 1.6ft 10s 4s 16 20 mph 1006.3mb 44f 35f
6:50pm 1.6ft 4s 4s 11 13 mph 1008.5mb 44f 35f
5:50pm 1.6ft 5s 4s 4 9 mph 1008.6mb 44f 36f
4:50pm 1.6ft 11s 4s 4 9 mph 1009mb 44f 35f
3:50pm 2ft 11s 5s 9 11 mph 1009.8mb 44f 35f
2:50pm 2.5ft 12s 5s 13 16 mph 1010.3mb 44f 35f
1:50pm 2.5ft 11s 5s 16 18 mph 1010.6mb 44f 36f
12:50pm 2.5ft 5s 5s 11 13 mph 1011mb 44f 37f
11:50am 2.5ft 11s 5s 2 7 mph 1011.6mb 44f 36f
10:50am 2.5ft 11s 5s 7 11 mph 1011.7mb 45f 36f
9:50am 2ft 5s 5s 9 13 mph 1011.6mb 44f 35f
8:50am 2.5ft 12s 5s 7 9 mph 1011.7mb 44f 36f
7:50am 2.5ft 11s 5s 4 7 mph 1011.5mb 44f 36f
6:50am 2.5ft 12s 5s 7 9 mph 1011.3mb 44f 35f
5:50am 2.5ft 11s 5s 9 11 mph 1011.4mb 44f 35f
4:50am 2.5ft 13s 5s 4 7 mph 1010.9mb 44f 35f
3:50am 2.5ft 13s 5s 9 11 mph 1010.9mb 44f 36f
2:50am 2.5ft 12s 5s 2 4 mph 1010.8mb 44f 36f
1:50am 2.5ft 11s 5s 2 4 mph 1010.5mb 44f 36f
12:50am 3.5ft 11s 6s 2 9 mph 1010.2mb 45f 36f
Mon 11/20 11:50pm 3ft 11s 5s 2 4 mph 1009.9mb 45f 36f
10:50pm 2.5ft 11s 5s 7 9 mph 1009.9mb 44f 36f
9:50pm 2.5ft 11s 5s  -  11 mph 1009.6mb 44f 36f
8:50pm 2.5ft 13s 5s 2 9 mph 1009.2mb 45f 36f
7:50pm 2.5ft 11s 5s 4 7 mph 1008.6mb 45f 36f
6:50pm 2.5ft 12s 5s 7 9 mph 1007.9mb 44f 36f
5:50pm 3ft 13s 5s 4 9 mph 1007mb 45f 36f
4:50pm 2.5ft 13s 5s 7 9 mph 1006.4mb 44f 36f
3:50pm 3ft 12s 4s 7 9 mph 1005.6mb 44f 36f
2:50pm 3ft 5s 4s 11 13 mph 1005.4mb 45f 36f
1:50pm 3ft 12s 4s 11 16 mph 1004.8mb 45f 36f
12:50pm 3.5ft 12s 5s 13 18 mph 1004.4mb 45f 37f
11:50am 3.5ft 11s 5s 13 18 mph 1004.1mb 45f 38f
10:50am 3.5ft 11s 5s 13 18 mph 1003.6mb 45f 38f
9:50am 3ft 11s 5s 16 20 mph 1002.7mb 45f 39f
8:50am 2.5ft 5s 5s 9 11 mph 1001.9mb 45f 39f
7:50am 2.5ft 5s 4s 9 11 mph 1000.9mb 44f 39f
6:50am 2.5ft 5s 4s 13 13 mph 1000mb 45f 40f
5:50am 2.5ft 5s 4s 11 13 mph 998.9mb 45f 40f
4:50am 2ft 5s 4s 7 9 mph 998.1mb 45f 40f
3:50am 2.5ft 5s 5s 11 16 mph 997.3mb 44f 40f
2:50am 2.5ft 5s 4s 7 9 mph 996.5mb 44f 38f
1:50am 2.5ft 5s 4s 11 13 mph 995.7mb 45f 37f
12:50am 2.5ft 5s 4s 11 13 mph 994.8mb 45f 37f
Sun 11/19 11:50pm 2.5ft 5s 5s 2 7 mph 994.5mb 45f 37f
10:50pm 2.5ft 5s 4s 2 7 mph 993.8mb 45f 36f
9:50pm 2.5ft 5s 4s 7 11 mph 993.4mb 45f 35f
8:50pm 2.5ft 5s 4s 7 11 mph 993.2mb 45f 34f
7:50pm 2.5ft 5s 4s 9 11 mph 992.9mb 45f 33f
6:50pm 2.5ft 5s 4s 13 18 mph 992.4mb 45f 32f
5:50pm 2.5ft 5s 4s 13 18 mph 991.7mb 45f 32f
4:50pm 2.5ft 5s 4s 16 18 mph 991.2mb 45f 31f
3:50pm 1.6ft 5s 4s 13 16 mph 991.1mb 45f 31f
2:50pm 1.6ft 5s 3s 13 16 mph 991.3mb 45f 31f
1:50pm 1.6ft 3s 3s 18 20 mph 991.4mb 45f 31f
12:50pm 1.3ft 5s 3s 16 20 mph 992.3mb 45f 30f
11:50am 1.3ft 5s 3s 13 16 mph 992.9mb 45f 29f
10:50am 1ft 5s 3s 7 11 mph 993.9mb 45f 27f
9:50am 1.3ft 4s 4s 11 16 mph 994.2mb 45f 27f
8:50am 1ft 10s 4s 11 13 mph 994.8mb 44f 28f
7:50am  -   -   -  11 13 mph 995.8mb 44f 29f
6:50am 1ft 11s 4s 13 16 mph 996.7mb 44f 28f
5:50am 1ft 11s 4s 2 7 mph 997.9mb 45f 29f
4:50am 1ft 5s 3s 9 11 mph 998.6mb 45f 33f
3:50am 1.3ft 5s 4s 9 11 mph 999.4mb 45f 33f
2:50am 1.6ft 4s 4s 4 7 mph 1000.5mb 45f 34f
1:50am 1.6ft 4s 4s 4 7 mph 1001.8mb 45f 34f
12:50am 1.6ft 4s 4s 4 11 mph 1003mb 45f 34f
Sat 11/18 11:50pm 1.6ft 4s 4s 7 11 mph 1003.9mb 45f 34f
10:50pm 1.6ft 5s 4s 11 13 mph 1004.3mb 45f 34f
9:50pm 2.5ft 5s 4s  -  4 mph 1005.5mb 45f 34f
8:50pm 2ft 4s 4s 4 7 mph 1006.3mb 45f 34f
7:50pm 2ft 4s 4s 4 7 mph 1007.5mb 45f 35f
6:50pm 2ft 4s 4s 7 11 mph 1007.8mb 45f 35f
5:50pm 2ft 4s 4s 7 11 mph 1008mb 45f 35f
4:50pm 2ft 5s 4s 4 9 mph 1008.3mb 45f 36f
3:50pm 2ft 4s 4s 2 7 mph 1008.3mb 45f 36f